sensor_id;sensor_type;location;lat;lon;timestamp;P1;durP1;ratioP1;P2;durP2;ratioP2
6197;SDS011;3132;42.622;23.328;2023-02-28T00:00:07;16.50;;;14.90;;
6197;SDS011;3132;42.622;23.328;2023-02-28T00:02:35;16.40;;;13.47;;
6197;SDS011;3132;42.622;23.328;2023-02-28T00:05:05;15.03;;;13.50;;
6197;SDS011;3132;42.622;23.328;2023-02-28T00:07:32;15.07;;;13.83;;
6197;SDS011;3132;42.622;23.328;2023-02-28T00:09:58;14.53;;;13.23;;
6197;SDS011;3132;42.622;23.328;2023-02-28T00:12:23;15.33;;;13.73;;
6197;SDS011;3132;42.622;23.328;2023-02-28T00:14:49;13.10;;;11.90;;
6197;SDS011;3132;42.622;23.328;2023-02-28T00:17:15;15.60;;;14.20;;
6197;SDS011;3132;42.622;23.328;2023-02-28T00:19:42;15.27;;;13.67;;
6197;SDS011;3132;42.622;23.328;2023-02-28T00:22:09;15.70;;;14.07;;
6197;SDS011;3132;42.622;23.328;2023-02-28T00:24:34;15.60;;;14.10;;
6197;SDS011;3132;42.622;23.328;2023-02-28T00:27:00;16.60;;;14.63;;
6197;SDS011;3132;42.622;23.328;2023-02-28T00:29:25;14.53;;;12.97;;
6197;SDS011;3132;42.622;23.328;2023-02-28T00:31:51;17.53;;;15.40;;
6197;SDS011;3132;42.622;23.328;2023-02-28T00:34:16;16.10;;;14.20;;
6197;SDS011;3132;42.622;23.328;2023-02-28T00:36:41;16.30;;;14.60;;
6197;SDS011;3132;42.622;23.328;2023-02-28T00:39:10;17.80;;;15.07;;
6197;SDS011;3132;42.622;23.328;2023-02-28T00:41:36;24.33;;;15.40;;
6197;SDS011;3132;42.622;23.328;2023-02-28T00:44:01;18.30;;;15.53;;
6197;SDS011;3132;42.622;23.328;2023-02-28T00:46:27;17.27;;;15.57;;
6197;SDS011;3132;42.622;23.328;2023-02-28T00:48:52;17.37;;;15.37;;
6197;SDS011;3132;42.622;23.328;2023-02-28T00:51:17;18.30;;;14.53;;
6197;SDS011;3132;42.622;23.328;2023-02-28T00:53:43;17.73;;;15.43;;
6197;SDS011;3132;42.622;23.328;2023-02-28T00:56:08;19.00;;;16.03;;
6197;SDS011;3132;42.622;23.328;2023-02-28T00:58:33;16.93;;;15.33;;
6197;SDS011;3132;42.622;23.328;2023-02-28T01:00:59;15.97;;;14.47;;
6197;SDS011;3132;42.622;23.328;2023-02-28T01:03:24;14.50;;;13.00;;
6197;SDS011;3132;42.622;23.328;2023-02-28T01:05:50;15.67;;;14.23;;
6197;SDS011;3132;42.622;23.328;2023-02-28T01:08:15;14.97;;;13.37;;
6197;SDS011;3132;42.622;23.328;2023-02-28T01:10:41;15.33;;;13.93;;
6197;SDS011;3132;42.622;23.328;2023-02-28T01:13:07;15.07;;;13.57;;
6197;SDS011;3132;42.622;23.328;2023-02-28T01:15:32;15.53;;;14.13;;
6197;SDS011;3132;42.622;23.328;2023-02-28T01:17:58;15.40;;;13.80;;
6197;SDS011;3132;42.622;23.328;2023-02-28T01:20:23;17.87;;;14.13;;
6197;SDS011;3132;42.622;23.328;2023-02-28T01:22:49;15.87;;;14.30;;
6197;SDS011;3132;42.622;23.328;2023-02-28T01:25:15;18.70;;;15.07;;
6197;SDS011;3132;42.622;23.328;2023-02-28T01:27:40;17.47;;;15.77;;
6197;SDS011;3132;42.622;23.328;2023-02-28T01:30:06;18.37;;;15.27;;
6197;SDS011;3132;42.622;23.328;2023-02-28T01:32:33;26.57;;;15.87;;
6197;SDS011;3132;42.622;23.328;2023-02-28T01:34:59;23.37;;;17.10;;
6197;SDS011;3132;42.622;23.328;2023-02-28T01:37:25;27.70;;;19.33;;
6197;SDS011;3132;42.622;23.328;2023-02-28T01:39:50;30.07;;;18.83;;
6197;SDS011;3132;42.622;23.328;2023-02-28T01:42:16;46.50;;;19.93;;
6197;SDS011;3132;42.622;23.328;2023-02-28T01:47:36;28.03;;;18.97;;
6197;SDS011;3132;42.622;23.328;2023-02-28T01:50:13;25.50;;;17.73;;
6197;SDS011;3132;42.622;23.328;2023-02-28T01:52:42;28.30;;;18.37;;
6197;SDS011;3132;42.622;23.328;2023-02-28T01:55:08;23.67;;;18.83;;
6197;SDS011;3132;42.622;23.328;2023-02-28T01:57:42;55.23;;;19.87;;
6197;SDS011;3132;42.622;23.328;2023-02-28T02:00:12;46.23;;;20.13;;
6197;SDS011;3132;42.622;23.328;2023-02-28T02:02:43;45.63;;;20.27;;
6197;SDS011;3132;42.622;23.328;2023-02-28T02:05:18;39.53;;;19.43;;
6197;SDS011;3132;42.622;23.328;2023-02-28T02:07:49;43.50;;;19.97;;
6197;SDS011;3132;42.622;23.328;2023-02-28T02:10:19;44.90;;;19.80;;
6197;SDS011;3132;42.622;23.328;2023-02-28T02:12:51;29.33;;;18.80;;
6197;SDS011;3132;42.622;23.328;2023-02-28T02:15:31;76.33;;;18.10;;
6197;SDS011;3132;42.622;23.328;2023-02-28T02:18:37;39.30;;;18.57;;
6197;SDS011;3132;42.622;23.328;2023-02-28T02:21:22;40.93;;;18.03;;
6197;SDS011;3132;42.622;23.328;2023-02-28T02:26:47;30.53;;;18.27;;
6197;SDS011;3132;42.622;23.328;2023-02-28T02:35:11;41.30;;;17.67;;
6197;SDS011;3132;42.622;23.328;2023-02-28T02:40:22;30.47;;;18.20;;
6197;SDS011;3132;42.622;23.328;2023-02-28T02:42:55;27.90;;;17.83;;
6197;SDS011;3132;42.622;23.328;2023-02-28T02:45:46;25.10;;;18.00;;
6197;SDS011;3132;42.622;23.328;2023-02-28T02:48:29;25.07;;;17.57;;
6197;SDS011;3132;42.622;23.328;2023-02-28T02:50:58;26.40;;;16.50;;
6197;SDS011;3132;42.622;23.328;2023-02-28T02:53:30;27.50;;;16.97;;
6197;SDS011;3132;42.622;23.328;2023-02-28T02:56:02;19.13;;;16.27;;
6197;SDS011;3132;42.622;23.328;2023-02-28T02:58:31;18.17;;;16.37;;
6197;SDS011;3132;42.622;23.328;2023-02-28T03:01:06;17.77;;;15.80;;
6197;SDS011;3132;42.622;23.328;2023-02-28T03:03:35;19.17;;;16.97;;
6197;SDS011;3132;42.622;23.328;2023-02-28T03:06:01;18.13;;;15.50;;
6197;SDS011;3132;42.622;23.328;2023-02-28T03:08:28;16.53;;;14.77;;
6197;SDS011;3132;42.622;23.328;2023-02-28T03:11:11;21.43;;;17.07;;
6197;SDS011;3132;42.622;23.328;2023-02-28T03:27:40;44.50;;;17.17;;
6197;SDS011;3132;42.622;23.328;2023-02-28T03:30:35;27.30;;;17.20;;
6197;SDS011;3132;42.622;23.328;2023-02-28T03:33:24;22.83;;;17.77;;
6197;SDS011;3132;42.622;23.328;2023-02-28T03:36:04;34.07;;;17.97;;
6197;SDS011;3132;42.622;23.328;2023-02-28T03:41:22;26.43;;;18.20;;
6197;SDS011;3132;42.622;23.328;2023-02-28T03:43:54;24.97;;;17.07;;
6197;SDS011;3132;42.622;23.328;2023-02-28T03:46:23;30.20;;;16.97;;
6197;SDS011;3132;42.622;23.328;2023-02-28T03:48:54;25.77;;;16.47;;
6197;SDS011;3132;42.622;23.328;2023-02-28T03:51:25;23.77;;;16.37;;
6197;SDS011;3132;42.622;23.328;2023-02-28T03:53:53;20.00;;;16.30;;
6197;SDS011;3132;42.622;23.328;2023-02-28T03:56:24;26.47;;;15.87;;
6197;SDS011;3132;42.622;23.328;2023-02-28T03:59:05;33.77;;;15.33;;
6197;SDS011;3132;42.622;23.328;2023-02-28T04:01:39;26.67;;;15.23;;
6197;SDS011;3132;42.622;23.328;2023-02-28T04:04:11;24.47;;;15.20;;
6197;SDS011;3132;42.622;23.328;2023-02-28T04:06:37;27.13;;;15.50;;
6197;SDS011;3132;42.622;23.328;2023-02-28T04:09:04;26.37;;;15.40;;
6197;SDS011;3132;42.622;23.328;2023-02-28T04:11:32;18.80;;;15.23;;
6197;SDS011;3132;42.622;23.328;2023-02-28T04:14:01;33.93;;;14.87;;
6197;SDS011;3132;42.622;23.328;2023-02-28T04:16:30;27.57;;;14.33;;
6197;SDS011;3132;42.622;23.328;2023-02-28T04:18:57;50.93;;;16.33;;
6197;SDS011;3132;42.622;23.328;2023-02-28T04:21:28;68.20;;;16.93;;
6197;SDS011;3132;42.622;23.328;2023-02-28T04:23:54;57.97;;;17.60;;
6197;SDS011;3132;42.622;23.328;2023-02-28T04:26:20;44.67;;;16.67;;
6197;SDS011;3132;42.622;23.328;2023-02-28T04:28:45;49.47;;;15.37;;
6197;SDS011;3132;42.622;23.328;2023-02-28T04:31:11;37.67;;;16.00;;
6197;SDS011;3132;42.622;23.328;2023-02-28T04:33:36;36.27;;;16.90;;
6197;SDS011;3132;42.622;23.328;2023-02-28T04:36:02;41.70;;;15.53;;
6197;SDS011;3132;42.622;23.328;2023-02-28T04:38:34;58.07;;;18.30;;
6197;SDS011;3132;42.622;23.328;2023-02-28T04:41:00;35.67;;;16.30;;
6197;SDS011;3132;42.622;23.328;2023-02-28T04:43:26;35.30;;;17.30;;
6197;SDS011;3132;42.622;23.328;2023-02-28T04:45:53;34.43;;;18.03;;
6197;SDS011;3132;42.622;23.328;2023-02-28T04:48:23;35.07;;;16.33;;
6197;SDS011;3132;42.622;23.328;2023-02-28T04:50:49;28.23;;;17.03;;
6197;SDS011;3132;42.622;23.328;2023-02-28T04:53:15;27.57;;;15.70;;
6197;SDS011;3132;42.622;23.328;2023-02-28T04:55:41;31.50;;;17.93;;
6197;SDS011;3132;42.622;23.328;2023-02-28T04:58:06;40.57;;;16.77;;
6197;SDS011;3132;42.622;23.328;2023-02-28T05:00:31;28.23;;;16.40;;
6197;SDS011;3132;42.622;23.328;2023-02-28T05:02:57;74.00;;;18.57;;
6197;SDS011;3132;42.622;23.328;2023-02-28T05:05:22;48.53;;;17.07;;
6197;SDS011;3132;42.622;23.328;2023-02-28T05:07:47;54.67;;;18.47;;
6197;SDS011;3132;42.622;23.328;2023-02-28T05:10:13;59.03;;;18.10;;
6197;SDS011;3132;42.622;23.328;2023-02-28T05:12:38;51.43;;;17.83;;
6197;SDS011;3132;42.622;23.328;2023-02-28T05:15:04;32.23;;;16.90;;
6197;SDS011;3132;42.622;23.328;2023-02-28T05:17:31;30.00;;;17.13;;
6197;SDS011;3132;42.622;23.328;2023-02-28T05:19:56;29.20;;;16.63;;
6197;SDS011;3132;42.622;23.328;2023-02-28T05:22:22;37.63;;;16.00;;
6197;SDS011;3132;42.622;23.328;2023-02-28T05:24:47;22.80;;;16.97;;
6197;SDS011;3132;42.622;23.328;2023-02-28T05:27:12;24.80;;;17.10;;
6197;SDS011;3132;42.622;23.328;2023-02-28T05:29:38;26.23;;;16.93;;
6197;SDS011;3132;42.622;23.328;2023-02-28T05:32:08;25.23;;;16.40;;
6197;SDS011;3132;42.622;23.328;2023-02-28T05:34:37;21.87;;;15.33;;
6197;SDS011;3132;42.622;23.328;2023-02-28T05:37:03;21.73;;;15.83;;
6197;SDS011;3132;42.622;23.328;2023-02-28T05:39:30;20.53;;;18.33;;
6197;SDS011;3132;42.622;23.328;2023-02-28T05:41:55;23.83;;;17.03;;
6197;SDS011;3132;42.622;23.328;2023-02-28T05:44:20;29.90;;;17.60;;
6197;SDS011;3132;42.622;23.328;2023-02-28T05:46:46;22.03;;;16.93;;
6197;SDS011;3132;42.622;23.328;2023-02-28T05:49:11;22.40;;;17.40;;
6197;SDS011;3132;42.622;23.328;2023-02-28T05:51:37;21.73;;;18.13;;
6197;SDS011;3132;42.622;23.328;2023-02-28T05:54:04;22.17;;;15.70;;
6197;SDS011;3132;42.622;23.328;2023-02-28T05:56:30;27.17;;;16.33;;
6197;SDS011;3132;42.622;23.328;2023-02-28T05:58:56;25.47;;;17.13;;
6197;SDS011;3132;42.622;23.328;2023-02-28T06:01:32;26.57;;;16.37;;
6197;SDS011;3132;42.622;23.328;2023-02-28T06:04:03;24.30;;;17.00;;
6197;SDS011;3132;42.622;23.328;2023-02-28T06:06:30;29.50;;;17.23;;
6197;SDS011;3132;42.622;23.328;2023-02-28T06:08:56;35.20;;;16.90;;
6197;SDS011;3132;42.622;23.328;2023-02-28T06:11:22;32.10;;;18.97;;
6197;SDS011;3132;42.622;23.328;2023-02-28T06:13:53;30.67;;;17.93;;
6197;SDS011;3132;42.622;23.328;2023-02-28T06:16:20;53.60;;;20.93;;
6197;SDS011;3132;42.622;23.328;2023-02-28T06:18:46;58.80;;;19.83;;
6197;SDS011;3132;42.622;23.328;2023-02-28T06:21:12;50.67;;;19.63;;
6197;SDS011;3132;42.622;23.328;2023-02-28T06:23:37;44.23;;;19.93;;
6197;SDS011;3132;42.622;23.328;2023-02-28T06:26:03;62.87;;;19.13;;
6197;SDS011;3132;42.622;23.328;2023-02-28T06:28:29;25.80;;;18.00;;
6197;SDS011;3132;42.622;23.328;2023-02-28T06:30:54;32.60;;;19.43;;
6197;SDS011;3132;42.622;23.328;2023-02-28T06:33:20;28.70;;;19.40;;
6197;SDS011;3132;42.622;23.328;2023-02-28T06:35:51;24.23;;;18.37;;
6197;SDS011;3132;42.622;23.328;2023-02-28T06:38:17;32.27;;;20.37;;
6197;SDS011;3132;42.622;23.328;2023-02-28T06:40:43;28.57;;;17.87;;
6197;SDS011;3132;42.622;23.328;2023-02-28T06:43:09;22.97;;;18.73;;
6197;SDS011;3132;42.622;23.328;2023-02-28T06:45:40;19.37;;;15.97;;
6197;SDS011;3132;42.622;23.328;2023-02-28T06:48:06;19.07;;;16.97;;
6197;SDS011;3132;42.622;23.328;2023-02-28T06:50:32;20.83;;;16.93;;
6197;SDS011;3132;42.622;23.328;2023-02-28T06:52:58;23.57;;;18.73;;
6197;SDS011;3132;42.622;23.328;2023-02-28T06:55:23;29.67;;;19.33;;
6197;SDS011;3132;42.622;23.328;2023-02-28T06:57:48;25.30;;;19.47;;
6197;SDS011;3132;42.622;23.328;2023-02-28T07:00:15;29.40;;;21.27;;
6197;SDS011;3132;42.622;23.328;2023-02-28T07:02:41;29.73;;;20.53;;
6197;SDS011;3132;42.622;23.328;2023-02-28T07:05:06;27.77;;;21.00;;
6197;SDS011;3132;42.622;23.328;2023-02-28T07:07:32;35.70;;;22.03;;
6197;SDS011;3132;42.622;23.328;2023-02-28T07:09:58;33.60;;;22.20;;
6197;SDS011;3132;42.622;23.328;2023-02-28T07:12:23;30.70;;;21.00;;
6197;SDS011;3132;42.622;23.328;2023-02-28T07:14:49;31.33;;;20.73;;
6197;SDS011;3132;42.622;23.328;2023-02-28T07:17:14;29.17;;;21.73;;
6197;SDS011;3132;42.622;23.328;2023-02-28T07:19:40;32.43;;;20.37;;
6197;SDS011;3132;42.622;23.328;2023-02-28T07:22:05;30.53;;;20.47;;
6197;SDS011;3132;42.622;23.328;2023-02-28T07:24:32;37.87;;;21.90;;
6197;SDS011;3132;42.622;23.328;2023-02-28T07:26:57;32.23;;;21.80;;
6197;SDS011;3132;42.622;23.328;2023-02-28T07:29:24;36.03;;;22.83;;
6197;SDS011;3132;42.622;23.328;2023-02-28T07:31:49;27.77;;;20.27;;
6197;SDS011;3132;42.622;23.328;2023-02-28T07:34:18;30.73;;;22.83;;
6197;SDS011;3132;42.622;23.328;2023-02-28T07:36:44;33.67;;;20.33;;
6197;SDS011;3132;42.622;23.328;2023-02-28T07:39:09;36.17;;;22.13;;
6197;SDS011;3132;42.622;23.328;2023-02-28T07:41:35;35.90;;;21.63;;
6197;SDS011;3132;42.622;23.328;2023-02-28T07:44:04;31.70;;;21.87;;
6197;SDS011;3132;42.622;23.328;2023-02-28T07:46:30;31.23;;;22.87;;
6197;SDS011;3132;42.622;23.328;2023-02-28T07:49:00;39.80;;;23.57;;
6197;SDS011;3132;42.622;23.328;2023-02-28T07:51:26;38.40;;;25.00;;
6197;SDS011;3132;42.622;23.328;2023-02-28T07:53:51;37.33;;;23.27;;
6197;SDS011;3132;42.622;23.328;2023-02-28T07:56:16;36.70;;;21.73;;
6197;SDS011;3132;42.622;23.328;2023-02-28T07:58:42;36.73;;;23.10;;
6197;SDS011;3132;42.622;23.328;2023-02-28T08:01:08;38.50;;;23.27;;
6197;SDS011;3132;42.622;23.328;2023-02-28T08:03:34;34.87;;;24.67;;
6197;SDS011;3132;42.622;23.328;2023-02-28T08:06:01;37.17;;;23.50;;
6197;SDS011;3132;42.622;23.328;2023-02-28T08:08:27;35.67;;;23.37;;
6197;SDS011;3132;42.622;23.328;2023-02-28T08:11:00;30.73;;;22.30;;
6197;SDS011;3132;42.622;23.328;2023-02-28T08:13:27;35.67;;;23.60;;
6197;SDS011;3132;42.622;23.328;2023-02-28T08:15:54;41.27;;;25.03;;
6197;SDS011;3132;42.622;23.328;2023-02-28T08:18:20;48.00;;;25.57;;
6197;SDS011;3132;42.622;23.328;2023-02-28T08:20:46;41.67;;;25.97;;
6197;SDS011;3132;42.622;23.328;2023-02-28T08:23:12;43.67;;;26.10;;
6197;SDS011;3132;42.622;23.328;2023-02-28T08:25:37;43.30;;;26.53;;
6197;SDS011;3132;42.622;23.328;2023-02-28T08:28:02;41.97;;;26.33;;
6197;SDS011;3132;42.622;23.328;2023-02-28T08:30:28;46.37;;;29.50;;
6197;SDS011;3132;42.622;23.328;2023-02-28T08:32:53;43.03;;;26.00;;
6197;SDS011;3132;42.622;23.328;2023-02-28T08:35:20;40.67;;;25.93;;
6197;SDS011;3132;42.622;23.328;2023-02-28T08:37:49;39.60;;;25.40;;
6197;SDS011;3132;42.622;23.328;2023-02-28T08:40:14;45.77;;;28.13;;
6197;SDS011;3132;42.622;23.328;2023-02-28T08:42:46;45.97;;;29.60;;
6197;SDS011;3132;42.622;23.328;2023-02-28T08:45:12;47.27;;;28.60;;
6197;SDS011;3132;42.622;23.328;2023-02-28T08:47:39;44.07;;;27.50;;
6197;SDS011;3132;42.622;23.328;2023-02-28T08:50:05;43.47;;;26.93;;
6197;SDS011;3132;42.622;23.328;2023-02-28T08:52:30;49.50;;;27.57;;
6197;SDS011;3132;42.622;23.328;2023-02-28T08:54:56;36.43;;;23.53;;
6197;SDS011;3132;42.622;23.328;2023-02-28T08:57:21;21.37;;;16.20;;
6197;SDS011;3132;42.622;23.328;2023-02-28T08:59:47;17.43;;;15.17;;
6197;SDS011;3132;42.622;23.328;2023-02-28T09:02:13;26.97;;;16.60;;
6197;SDS011;3132;42.622;23.328;2023-02-28T09:04:40;30.97;;;18.13;;
6197;SDS011;3132;42.622;23.328;2023-02-28T09:07:05;25.17;;;18.63;;
6197;SDS011;3132;42.622;23.328;2023-02-28T09:09:31;41.10;;;25.17;;
6197;SDS011;3132;42.622;23.328;2023-02-28T09:11:56;35.80;;;24.47;;
6197;SDS011;3132;42.622;23.328;2023-02-28T09:14:22;39.27;;;24.90;;
6197;SDS011;3132;42.622;23.328;2023-02-28T09:16:48;40.60;;;23.83;;
6197;SDS011;3132;42.622;23.328;2023-02-28T09:19:14;38.77;;;25.10;;
6197;SDS011;3132;42.622;23.328;2023-02-28T09:21:39;43.47;;;25.63;;
6197;SDS011;3132;42.622;23.328;2023-02-28T09:24:05;40.97;;;26.73;;
6197;SDS011;3132;42.622;23.328;2023-02-28T09:26:30;28.17;;;18.97;;
6197;SDS011;3132;42.622;23.328;2023-02-28T09:28:56;23.63;;;16.57;;
6197;SDS011;3132;42.622;23.328;2023-02-28T09:31:24;27.73;;;15.03;;
6197;SDS011;3132;42.622;23.328;2023-02-28T09:33:53;21.63;;;15.33;;
6197;SDS011;3132;42.622;23.328;2023-02-28T09:36:20;17.63;;;15.03;;
6197;SDS011;3132;42.622;23.328;2023-02-28T09:38:46;16.63;;;15.00;;
6197;SDS011;3132;42.622;23.328;2023-02-28T09:41:32;22.47;;;15.40;;
6197;SDS011;3132;42.622;23.328;2023-02-28T09:44:13;21.87;;;14.93;;
6197;SDS011;3132;42.622;23.328;2023-02-28T09:46:48;20.13;;;13.87;;
6197;SDS011;3132;42.622;23.328;2023-02-28T09:49:25;19.03;;;14.50;;
6197;SDS011;3132;42.622;23.328;2023-02-28T09:52:02;19.47;;;13.87;;
6197;SDS011;3132;42.622;23.328;2023-02-28T09:54:31;20.40;;;14.30;;
6197;SDS011;3132;42.622;23.328;2023-02-28T10:02:17;15.63;;;13.60;;
6197;SDS011;3132;42.622;23.328;2023-02-28T10:04:54;20.43;;;15.17;;
6197;SDS011;3132;42.622;23.328;2023-02-28T10:07:29;19.47;;;14.47;;
6197;SDS011;3132;42.622;23.328;2023-02-28T10:09:59;18.67;;;14.03;;
6197;SDS011;3132;42.622;23.328;2023-02-28T10:12:29;19.13;;;14.67;;
6197;SDS011;3132;42.622;23.328;2023-02-28T10:14:57;18.67;;;14.37;;
6197;SDS011;3132;42.622;23.328;2023-02-28T10:17:30;17.30;;;13.83;;
6197;SDS011;3132;42.622;23.328;2023-02-28T10:23:05;16.73;;;13.80;;
6197;SDS011;3132;42.622;23.328;2023-02-28T10:25:39;15.73;;;13.53;;
6197;SDS011;3132;42.622;23.328;2023-02-28T10:28:09;16.23;;;14.27;;
6197;SDS011;3132;42.622;23.328;2023-02-28T10:30:36;19.83;;;13.47;;
6197;SDS011;3132;42.622;23.328;2023-02-28T10:33:04;23.40;;;13.10;;
6197;SDS011;3132;42.622;23.328;2023-02-28T10:35:30;14.80;;;12.50;;
6197;SDS011;3132;42.622;23.328;2023-02-28T10:37:56;24.13;;;13.53;;
6197;SDS011;3132;42.622;23.328;2023-02-28T10:42:55;19.60;;;12.47;;
6197;SDS011;3132;42.622;23.328;2023-02-28T10:45:23;23.47;;;15.10;;
6197;SDS011;3132;42.622;23.328;2023-02-28T10:47:54;19.07;;;13.97;;
6197;SDS011;3132;42.622;23.328;2023-02-28T10:55:55;17.07;;;13.67;;
6197;SDS011;3132;42.622;23.328;2023-02-28T11:04:01;19.70;;;13.50;;
6197;SDS011;3132;42.622;23.328;2023-02-28T11:06:31;17.97;;;14.10;;
6197;SDS011;3132;42.622;23.328;2023-02-28T11:09:00;20.53;;;13.57;;
6197;SDS011;3132;42.622;23.328;2023-02-28T11:11:29;16.83;;;13.70;;
6197;SDS011;3132;42.622;23.328;2023-02-28T11:14:05;17.77;;;14.63;;
6197;SDS011;3132;42.622;23.328;2023-02-28T11:16:42;15.73;;;14.30;;
6197;SDS011;3132;42.622;23.328;2023-02-28T11:19:07;18.60;;;14.97;;
6197;SDS011;3132;42.622;23.328;2023-02-28T11:21:53;16.47;;;14.63;;
6197;SDS011;3132;42.622;23.328;2023-02-28T11:24:28;15.43;;;12.90;;
6197;SDS011;3132;42.622;23.328;2023-02-28T11:26:58;18.50;;;14.77;;
6197;SDS011;3132;42.622;23.328;2023-02-28T11:29:26;20.37;;;14.43;;
6197;SDS011;3132;42.622;23.328;2023-02-28T11:37:39;20.77;;;15.57;;
6197;SDS011;3132;42.622;23.328;2023-02-28T11:40:08;16.37;;;14.60;;
6197;SDS011;3132;42.622;23.328;2023-02-28T11:45:43;17.17;;;14.27;;
6197;SDS011;3132;42.622;23.328;2023-02-28T11:48:12;20.83;;;15.50;;
6197;SDS011;3132;42.622;23.328;2023-02-28T11:56:41;19.33;;;15.47;;
6197;SDS011;3132;42.622;23.328;2023-02-28T12:02:28;17.27;;;15.07;;
6197;SDS011;3132;42.622;23.328;2023-02-28T12:05:11;17.00;;;15.27;;
6197;SDS011;3132;42.622;23.328;2023-02-28T12:20:45;23.43;;;16.30;;
6197;SDS011;3132;42.622;23.328;2023-02-28T12:26:34;22.00;;;15.20;;
6197;SDS011;3132;42.622;23.328;2023-02-28T12:29:03;19.70;;;16.03;;
6197;SDS011;3132;42.622;23.328;2023-02-28T12:31:36;18.77;;;14.47;;
6197;SDS011;3132;42.622;23.328;2023-02-28T12:34:07;18.07;;;15.10;;
6197;SDS011;3132;42.622;23.328;2023-02-28T12:36:37;21.50;;;15.53;;
6197;SDS011;3132;42.622;23.328;2023-02-28T12:39:08;21.03;;;17.23;;
6197;SDS011;3132;42.622;23.328;2023-02-28T12:41:51;25.30;;;15.57;;
6197;SDS011;3132;42.622;23.328;2023-02-28T12:47:11;22.30;;;15.67;;
6197;SDS011;3132;42.622;23.328;2023-02-28T12:49:45;24.93;;;17.87;;
6197;SDS011;3132;42.622;23.328;2023-02-28T12:52:18;24.33;;;17.70;;
6197;SDS011;3132;42.622;23.328;2023-02-28T12:54:54;23.87;;;16.07;;
6197;SDS011;3132;42.622;23.328;2023-02-28T13:00:33;17.63;;;15.73;;
6197;SDS011;3132;42.622;23.328;2023-02-28T13:09:01;21.80;;;17.17;;
6197;SDS011;3132;42.622;23.328;2023-02-28T13:11:31;22.83;;;17.23;;
6197;SDS011;3132;42.622;23.328;2023-02-28T13:14:22;22.10;;;16.20;;
6197;SDS011;3132;42.622;23.328;2023-02-28T13:19:37;22.03;;;16.83;;
6197;SDS011;3132;42.622;23.328;2023-02-28T13:22:05;19.80;;;16.40;;
6197;SDS011;3132;42.622;23.328;2023-02-28T13:24:50;25.00;;;15.53;;
6197;SDS011;3132;42.622;23.328;2023-02-28T13:27:21;25.97;;;16.87;;
6197;SDS011;3132;42.622;23.328;2023-02-28T13:29:57;25.67;;;16.03;;
6197;SDS011;3132;42.622;23.328;2023-02-28T13:42:35;22.90;;;15.80;;
6197;SDS011;3132;42.622;23.328;2023-02-28T13:47:28;18.37;;;15.20;;
6197;SDS011;3132;42.622;23.328;2023-02-28T13:50:42;19.23;;;16.00;;
6197;SDS011;3132;42.622;23.328;2023-02-28T13:58:26;21.07;;;14.57;;
6197;SDS011;3132;42.622;23.328;2023-02-28T14:01:06;17.60;;;14.07;;
6197;SDS011;3132;42.622;23.328;2023-02-28T14:06:23;17.37;;;14.27;;
6197;SDS011;3132;42.622;23.328;2023-02-28T14:11:37;22.83;;;15.73;;
6197;SDS011;3132;42.622;23.328;2023-02-28T14:14:04;18.33;;;14.43;;
6197;SDS011;3132;42.622;23.328;2023-02-28T14:16:35;23.47;;;16.17;;
6197;SDS011;3132;42.622;23.328;2023-02-28T14:21:35;19.73;;;16.53;;
6197;SDS011;3132;42.622;23.328;2023-02-28T14:38:01;17.20;;;14.80;;
6197;SDS011;3132;42.622;23.328;2023-02-28T14:40:35;15.70;;;13.53;;
6197;SDS011;3132;42.622;23.328;2023-02-28T14:43:04;21.53;;;14.60;;
6197;SDS011;3132;42.622;23.328;2023-02-28T14:45:32;15.73;;;13.93;;
6197;SDS011;3132;42.622;23.328;2023-02-28T14:47:59;19.57;;;15.30;;
6197;SDS011;3132;42.622;23.328;2023-02-28T14:50:29;25.77;;;15.03;;
6197;SDS011;3132;42.622;23.328;2023-02-28T14:52:56;20.37;;;14.67;;
6197;SDS011;3132;42.622;23.328;2023-02-28T14:55:33;21.60;;;14.07;;
6197;SDS011;3132;42.622;23.328;2023-02-28T14:58:01;22.27;;;14.80;;
6197;SDS011;3132;42.622;23.328;2023-02-28T15:00:32;14.23;;;13.00;;
6197;SDS011;3132;42.622;23.328;2023-02-28T15:03:00;21.67;;;14.17;;
6197;SDS011;3132;42.622;23.328;2023-02-28T15:05:42;18.87;;;13.80;;
6197;SDS011;3132;42.622;23.328;2023-02-28T15:08:11;22.70;;;14.87;;
6197;SDS011;3132;42.622;23.328;2023-02-28T15:10:41;23.67;;;14.57;;
6197;SDS011;3132;42.622;23.328;2023-02-28T15:13:13;22.23;;;13.97;;
6197;SDS011;3132;42.622;23.328;2023-02-28T15:15:45;19.77;;;15.57;;
6197;SDS011;3132;42.622;23.328;2023-02-28T15:20:45;28.30;;;14.87;;
6197;SDS011;3132;42.622;23.328;2023-02-28T15:23:12;19.13;;;13.63;;
6197;SDS011;3132;42.622;23.328;2023-02-28T15:25:40;18.23;;;13.93;;
6197;SDS011;3132;42.622;23.328;2023-02-28T15:28:09;15.37;;;13.93;;
6197;SDS011;3132;42.622;23.328;2023-02-28T15:30:49;21.63;;;14.10;;
6197;SDS011;3132;42.622;23.328;2023-02-28T15:35:43;22.13;;;15.30;;
6197;SDS011;3132;42.622;23.328;2023-02-28T15:40:53;14.93;;;13.30;;
6197;SDS011;3132;42.622;23.328;2023-02-28T15:43:24;15.67;;;12.57;;
6197;SDS011;3132;42.622;23.328;2023-02-28T15:46:06;16.53;;;12.83;;
6197;SDS011;3132;42.622;23.328;2023-02-28T15:48:44;13.03;;;11.93;;
6197;SDS011;3132;42.622;23.328;2023-02-28T15:53:48;13.33;;;12.03;;
6197;SDS011;3132;42.622;23.328;2023-02-28T15:58:55;16.90;;;14.63;;
6197;SDS011;3132;42.622;23.328;2023-02-28T16:03:51;17.17;;;15.40;;
6197;SDS011;3132;42.622;23.328;2023-02-28T16:06:23;17.30;;;14.67;;
6197;SDS011;3132;42.622;23.328;2023-02-28T16:08:55;17.40;;;15.50;;
6197;SDS011;3132;42.622;23.328;2023-02-28T16:11:21;17.90;;;14.63;;
6197;SDS011;3132;42.622;23.328;2023-02-28T16:13:47;18.90;;;16.90;;
6197;SDS011;3132;42.622;23.328;2023-02-28T16:16:17;17.73;;;15.93;;
6197;SDS011;3132;42.622;23.328;2023-02-28T16:18:44;22.73;;;16.47;;
6197;SDS011;3132;42.622;23.328;2023-02-28T16:21:09;19.13;;;16.17;;
6197;SDS011;3132;42.622;23.328;2023-02-28T16:23:35;15.33;;;14.03;;
6197;SDS011;3132;42.622;23.328;2023-02-28T16:26:00;18.23;;;14.20;;
6197;SDS011;3132;42.622;23.328;2023-02-28T16:28:30;15.27;;;13.70;;
6197;SDS011;3132;42.622;23.328;2023-02-28T16:30:59;16.10;;;13.77;;
6197;SDS011;3132;42.622;23.328;2023-02-28T16:33:27;15.07;;;13.67;;
6197;SDS011;3132;42.622;23.328;2023-02-28T16:35:53;17.53;;;15.73;;
6197;SDS011;3132;42.622;23.328;2023-02-28T16:38:18;16.97;;;14.93;;
6197;SDS011;3132;42.622;23.328;2023-02-28T16:40:44;16.80;;;15.00;;
6197;SDS011;3132;42.622;23.328;2023-02-28T16:43:13;16.97;;;15.23;;
6197;SDS011;3132;42.622;23.328;2023-02-28T16:45:43;17.53;;;15.83;;
6197;SDS011;3132;42.622;23.328;2023-02-28T16:48:11;17.57;;;15.87;;
6197;SDS011;3132;42.622;23.328;2023-02-28T16:50:38;15.27;;;13.70;;
6197;SDS011;3132;42.622;23.328;2023-02-28T16:53:04;16.23;;;14.73;;
6197;SDS011;3132;42.622;23.328;2023-02-28T16:55:29;16.00;;;14.43;;
6197;SDS011;3132;42.622;23.328;2023-02-28T16:57:58;18.40;;;14.60;;
6197;SDS011;3132;42.622;23.328;2023-02-28T17:00:25;14.77;;;13.43;;
6197;SDS011;3132;42.622;23.328;2023-02-28T17:02:52;13.90;;;12.80;;
